This is the latest recevied weather packets stored in our database for station/object SA3VCC-15. If no packets are shown the sender has not sent any weather packets the latest 10 day(s).
| Time | Temp. | Humidity | Pressure | Rain* | Wind** | Luminosity | Snow |
|---|---|---|---|---|---|---|---|
| 1777265215 | 1.67° C | 61% | 1019.1 hPa | - | - | - | - |
| 1777263955 | 1.11° C | 62% | 1019 hPa | - | - | - | - |
| 1777262695 | 1.11° C | 64% | 1018.7 hPa | - | - | - | - |
| 1777261435 | 0.56° C | 66% | 1018.5 hPa | - | - | - | - |
| 1777260175 | 0° C | 66% | 1018.5 hPa | - | - | - | - |
| 1777258915 | 0° C | 66% | 1018.3 hPa | - | - | - | - |
| 1777257655 | 0° C | 65% | 1018.3 hPa | - | - | - | - |
| 1777256395 | 0° C | 64% | 1018.2 hPa | - | - | - | - |
| 1777255135 | 0.56° C | 62% | 1018.1 hPa | - | - | - | - |
| 1777253875 | 0.56° C | 62% | 1017.9 hPa | - | - | - | - |
| 1777252614 | 1.11° C | 59% | 1017.8 hPa | - | - | - | - |
| 1777250094 | 1.11° C | 58% | 1017.6 hPa | - | - | - | - |
| 1777248834 | 1.11° C | 57% | 1017.3 hPa | - | - | - | - |
| 1777247574 | 1.11° C | 56% | 1017.2 hPa | - | - | - | - |
| 1777246314 | 1.67° C | 56% | 1017.2 hPa | - | - | - | - |
| 1777245054 | 1.67° C | 55% | 1017 hPa | - | - | - | - |
| 1777243794 | 1.67° C | 55% | 1016.9 hPa | - | - | - | - |
| 1777242534 | 2.22° C | 54% | 1016.8 hPa | - | - | - | - |
| 1777241274 | 2.22° C | 55% | 1016.6 hPa | - | - | - | - |
| 1777240014 | 2.22° C | 52% | 1016.5 hPa | - | - | - | - |
| 1777238754 | 2.78° C | 51% | 1016.3 hPa | - | - | - | - |
| 1777236234 | 3.33° C | 47% | 1016 hPa | - | - | - | - |
| 1777234974 | 3.33° C | 46% | 1015.9 hPa | - | - | - | - |
| 1777233714 | 3.33° C | 46% | 1015.8 hPa | - | - | - | - |
| 1777232454 | 3.33° C | 47% | 1015.7 hPa | - | - | - | - |
* Rain since midnight (hover to see other rain measurements)
** Current wind speed in m/s (hover to see current wind gust speed)